Time;durP1;ratioP1;P1;durP2;ratioP2;P2;SDS_P1;SDS_P2;PMS_P1;PMS_P2;Temp;Humidity;BMP_temperature;BMP_pressure;BME280_temperature;BME280_humidity;BME280_pressure;Samples;Min_cycle;Max_cycle;Signal;HPM_P1;HPM_P2
2022/09/09 00:01:27;;;;;;;15.10;6.03;;;;;;;10.95;100.00;99676.03;4187052;28;21698;-69
2022/09/09 00:03:57;;;;;;;11.20;5.20;;;;;;;10.88;100.00;99677.69;4201851;28;20244;-69
2022/09/09 00:06:35;;;;;;;17.07;6.30;;;;;;;10.78;100.00;99669.84;4191571;28;20670;-71
2022/09/09 00:09:10;;;;;;;17.67;6.87;;;;;;;10.73;100.00;99667.69;4200553;28;20304;-70
2022/09/09 00:11:43;;;;;;;12.47;5.67;;;;;;;10.74;100.00;99657.88;4199626;28;21555;-74
2022/09/09 00:14:45;;;;;;;15.60;6.67;;;;;;;10.71;100.00;99667.03;4193677;28;22255;-72
2022/09/09 00:17:25;;;;;;;16.97;6.70;;;;;;;10.73;100.00;99673.00;4167925;28;20717;-69
2022/09/09 00:20:12;;;;;;;18.47;7.60;;;;;;;10.67;100.00;99662.19;4214789;28;20231;-71
2022/09/09 00:22:47;;;;;;;16.13;6.77;;;;;;;10.68;100.00;99671.84;4194353;28;20237;-70
2022/09/09 00:25:26;;;;;;;17.37;7.03;;;;;;;10.63;100.00;99671.50;4190032;28;20332;-70
2022/09/09 00:27:53;;;;;;;13.07;7.33;;;;;;;10.62;100.00;99664.53;4200748;28;20293;-71
2022/09/09 00:30:25;;;;;;;14.33;6.87;;;;;;;10.62;100.00;99665.34;4193565;28;21025;-68
2022/09/09 00:32:59;;;;;;;14.03;7.20;;;;;;;10.63;100.00;99666.16;4200786;28;20398;-72
2022/09/09 00:35:39;;;;;;;17.27;7.73;;;;;;;10.57;100.00;99673.81;4195514;28;20235;-69
2022/09/09 00:38:19;;;;;;;15.13;7.47;;;;;;;10.64;100.00;99673.16;4186881;28;21040;-68
2022/09/09 00:40:50;;;;;;;20.00;7.70;;;;;;;10.63;100.00;99667.03;4191440;28;20413;-71
2022/09/09 00:43:35;;;;;;;21.00;7.93;;;;;;;10.57;100.00;99668.50;4192827;28;21089;-69
2022/09/09 00:46:26;;;;;;;14.50;7.47;;;;;;;10.57;100.00;99665.84;4200507;28;20239;-69
2022/09/09 00:49:02;;;;;;;15.57;7.93;;;;;;;10.57;100.00;99665.00;4192064;28;20237;-70
2022/09/09 00:51:51;;;;;;;15.73;8.20;;;;;;;10.56;100.00;99666.84;4191668;28;20232;-70
2022/09/09 00:54:33;;;;;;;16.00;8.50;;;;;;;10.53;100.00;99661.00;4183139;28;21984;-69
2022/09/09 00:57:23;;;;;;;18.17;8.50;;;;;;;10.54;100.00;99668.84;4185018;28;20245;-68
2022/09/09 01:00:24;;;;;;;16.40;8.87;;;;;;;10.60;100.00;99671.84;4180205;28;20237;-70
2022/09/09 01:02:54;;;;;;;17.70;8.47;;;;;;;10.53;100.00;99677.78;4197507;28;21878;-69
2022/09/09 01:05:29;;;;;;;18.93;9.10;;;;;;;10.58;100.00;99674.66;4199322;28;20263;-70
2022/09/09 01:07:58;;;;;;;21.30;9.27;;;;;;;10.56;100.00;99666.84;4197869;28;20247;-70
2022/09/09 01:10:41;;;;;;;24.57;10.13;;;;;;;10.62;100.00;99664.53;4185405;28;20245;-70
2022/09/09 01:13:15;;;;;;;24.47;9.87;;;;;;;10.57;100.00;99662.34;4190183;28;20309;-70
2022/09/09 01:15:42;;;;;;;18.63;9.80;;;;;;;10.60;100.00;99655.88;4186987;28;22863;-69
2022/09/09 01:18:12;;;;;;;20.20;9.43;;;;;;;10.69;100.00;99665.53;4204640;28;20307;-70
2022/09/09 01:20:55;;;;;;;23.60;10.83;;;;;;;10.60;100.00;99655.88;4193808;28;21140;-68
2022/09/09 01:23:42;;;;;;;23.53;10.57;;;;;;;10.53;100.00;99659.16;4200991;28;22126;-69
2022/09/09 01:26:19;;;;;;;20.47;10.63;;;;;;;10.58;100.00;99653.34;4191112;28;23989;-73
2022/09/09 01:28:48;;;;;;;18.63;9.93;;;;;;;10.53;100.00;99648.53;4188397;28;20250;-69
2022/09/09 01:31:29;;;;;;;20.47;10.53;;;;;;;10.53;100.00;99645.03;4181520;28;20450;-71
2022/09/09 01:33:56;;;;;;;20.57;10.20;;;;;;;10.57;100.00;99649.88;4217857;28;21741;-68
2022/09/09 01:36:37;;;;;;;20.20;10.67;;;;;;;10.54;100.00;99652.88;4196055;28;20308;-69
2022/09/09 01:39:04;;;;;;;28.87;10.30;;;;;;;10.51;100.00;99647.88;4195069;28;22824;-68
2022/09/09 01:41:31;;;;;;;20.53;10.07;;;;;;;10.53;100.00;99645.03;4193572;28;20637;-69
2022/09/09 01:43:57;;;;;;;21.63;10.67;;;;;;;10.53;100.00;99643.22;4184425;28;23175;-69
2022/09/09 01:46:24;;;;;;;23.50;10.57;;;;;;;10.53;100.00;99648.53;4186438;28;20239;-69
2022/09/09 01:48:52;;;;;;;21.70;10.77;;;;;;;10.57;100.00;99655.19;4181194;28;20235;-70
2022/09/09 01:51:18;;;;;;;21.43;10.57;;;;;;;10.57;100.00;99660.50;4178473;28;20240;-72
2022/09/09 01:53:46;;;;;;;23.70;10.53;;;;;;;10.61;100.00;99654.88;4190261;28;21341;-69
2022/09/09 01:56:18;;;;;;;24.40;11.37;;;;;;;10.61;100.00;99657.56;4190658;28;21230;-69
2022/09/09 01:58:53;;;;;;;24.07;11.20;;;;;;;10.53;100.00;99656.50;4190542;28;20511;-70
2022/09/09 02:01:33;;;;;;;19.57;10.20;;;;;;;10.56;100.00;99648.22;4186902;28;20422;-71
2022/09/09 02:04:01;;;;;;;22.40;10.97;;;;;;;10.61;100.00;99646.91;4181708;28;20285;-70
2022/09/09 02:06:35;;;;;;;22.43;11.30;;;;;;;10.60;100.00;99647.88;4186017;28;20249;-69
2022/09/09 02:09:05;;;;;;;23.13;12.00;;;;;;;10.64;100.00;99631.44;4171692;28;21081;-68
2022/09/09 02:11:32;;;;;;;25.97;11.83;;;;;;;10.61;100.00;99642.41;4184059;28;20875;-71
2022/09/09 02:14:10;;;;;;;22.20;10.93;;;;;;;10.56;100.00;99645.56;4193638;28;20381;-70
2022/09/09 02:16:43;;;;;;;24.83;12.33;;;;;;;10.56;100.00;99644.75;4191500;28;20242;-68
2022/09/09 02:19:15;;;;;;;23.80;10.87;;;;;;;10.60;100.00;99639.91;4177182;28;20321;-69
2022/09/09 02:21:44;;;;;;;21.87;11.43;;;;;;;10.56;100.00;99640.25;4188318;28;20240;-69
2022/09/09 02:24:14;;;;;;;25.53;11.40;;;;;;;10.68;100.00;99634.59;4189179;28;20298;-71
2022/09/09 02:26:42;;;;;;;22.37;10.93;;;;;;;10.73;100.00;99635.75;4186612;28;20236;-68
2022/09/09 02:29:14;;;;;;;27.63;12.20;;;;;;;10.65;100.00;99640.22;4179389;28;22443;-71
2022/09/09 02:31:42;;;;;;;25.43;11.73;;;;;;;10.64;100.00;99643.91;4180653;28;21971;-72
2022/09/09 02:34:10;;;;;;;24.37;12.33;;;;;;;10.61;100.00;99652.22;4191620;28;20229;-69
2022/09/09 02:36:39;;;;;;;22.57;12.83;;;;;;;10.64;100.00;99643.91;4179012;28;20241;-69
2022/09/09 02:39:07;;;;;;;24.70;12.43;;;;;;;10.64;100.00;99651.88;4174272;28;22345;-69
2022/09/09 02:41:35;;;;;;;25.73;12.07;;;;;;;10.71;100.00;99652.88;4199401;28;20232;-70
2022/09/09 02:44:06;;;;;;;20.37;11.50;;;;;;;10.68;100.00;99659.38;4189931;28;20541;-71
2022/09/09 02:46:36;;;;;;;24.07;12.93;;;;;;;10.71;100.00;99667.03;4203969;28;20236;-68
2022/09/09 02:49:09;;;;;;;24.47;12.37;;;;;;;10.79;100.00;99663.53;4198278;28;23521;-71
2022/09/09 02:51:40;;;;;;;23.20;12.07;;;;;;;10.72;100.00;99660.72;4200174;28;21566;-72
2022/09/09 02:54:30;;;;;;;25.37;12.57;;;;;;;10.73;100.00;99664.22;4193689;28;20599;-70
2022/09/09 02:57:05;;;;;;;24.70;12.00;;;;;;;10.74;100.00;99657.88;4204012;28;20235;-71
2022/09/09 02:59:32;;;;;;;23.67;12.60;;;;;;;10.69;100.00;99654.88;4194602;28;20224;-69
2022/09/09 03:01:58;;;;;;;26.70;12.53;;;;;;;10.68;100.00;99653.22;4193592;28;20238;-71
2022/09/09 03:04:25;;;;;;;25.07;13.00;;;;;;;10.66;100.00;99644.56;4193695;28;20239;-70
2022/09/09 03:06:51;;;;;;;25.87;12.90;;;;;;;10.62;100.00;99654.69;4199591;28;21547;-71
2022/09/09 03:09:18;;;;;;;22.60;12.63;;;;;;;10.64;100.00;99652.72;4200693;28;21249;-69
2022/09/09 03:11:44;;;;;;;24.50;12.90;;;;;;;10.67;100.00;99646.22;4203845;28;22446;-68
2022/09/09 03:14:11;;;;;;;29.33;12.93;;;;;;;10.66;100.00;99653.38;4196688;28;21371;-72
2022/09/09 03:16:37;;;;;;;21.73;12.03;;;;;;;10.65;100.00;99654.41;4200079;28;20251;-71
2022/09/09 03:19:04;;;;;;;26.63;13.30;;;;;;;10.64;100.00;99651.88;4189942;28;20260;-71
2022/09/09 03:21:31;;;;;;;24.40;12.53;;;;;;;10.71;100.00;99658.22;4186452;28;20235;-68
2022/09/09 03:23:58;;;;;;;21.67;11.90;;;;;;;10.65;100.00;99664.19;4205824;28;20232;-71
2022/09/09 03:26:24;;;;;;;20.63;11.13;;;;;;;10.68;100.00;99648.72;4200288;28;20325;-71
2022/09/09 03:28:51;;;;;;;23.07;11.77;;;;;;;10.72;100.00;99646.56;4191692;28;20240;-70
2022/09/09 03:31:19;;;;;;;21.40;11.37;;;;;;;10.76;100.00;99650.56;4198470;28;20229;-73
2022/09/09 03:33:45;;;;;;;21.20;11.13;;;;;;;10.72;100.00;99649.22;4214861;28;22929;-69
2022/09/09 03:36:12;;;;;;;15.50;10.10;;;;;;;10.73;100.00;99650.91;4209617;28;23524;-69
2022/09/09 03:38:39;;;;;;;21.47;11.03;;;;;;;10.72;100.00;99641.25;4208409;28;20242;-71
2022/09/09 03:41:05;;;;;;;22.77;11.27;;;;;;;10.74;100.00;99644.56;4198880;28;20243;-68
2022/09/09 03:43:32;;;;;;;25.47;12.13;;;;;;;10.77;100.00;99642.44;4200245;28;20259;-69
2022/09/09 03:45:58;;;;;;;22.17;11.70;;;;;;;10.80;100.00;99651.06;4192150;28;20449;-71
2022/09/09 03:48:27;;;;;;;22.50;11.73;;;;;;;10.80;100.00;99656.41;4201408;28;21051;-69
2022/09/09 03:50:55;;;;;;;21.27;12.00;;;;;;;10.77;100.00;99654.91;4201600;28;20443;-67
2022/09/09 03:53:24;;;;;;;19.77;11.43;;;;;;;10.76;100.00;99658.53;4208333;28;22613;-70
2022/09/09 03:55:54;;;;;;;26.63;12.13;;;;;;;10.77;100.00;99657.56;4203123;28;20651;-70
2022/09/09 03:58:24;;;;;;;19.43;11.53;;;;;;;10.75;100.00;99660.38;4196631;28;20242;-69
2022/09/09 04:00:55;;;;;;;21.17;12.23;;;;;;;10.75;100.00;99657.72;4192406;28;20241;-68
2022/09/09 04:03:24;;;;;;;23.13;13.13;;;;;;;10.77;100.00;99652.25;4206373;28;20242;-68
2022/09/09 04:05:55;;;;;;;18.87;11.43;;;;;;;10.78;100.00;99654.72;4194318;28;23455;-70
2022/09/09 04:08:22;;;;;;;24.93;12.50;;;;;;;10.80;100.00;99657.22;4192017;28;21486;-68
2022/09/09 04:10:49;;;;;;;27.87;12.50;;;;;;;10.82;100.00;99654.41;4209063;28;20331;-69
2022/09/09 04:13:17;;;;;;;20.57;12.17;;;;;;;10.85;100.00;99654.91;4202373;28;20295;-66
2022/09/09 04:15:44;;;;;;;22.23;13.20;;;;;;;10.84;100.00;99652.38;4193243;28;20237;-69
2022/09/09 04:18:11;;;;;;;19.10;12.20;;;;;;;10.86;100.00;99651.22;4191930;28;20658;-73
2022/09/09 04:20:43;;;;;;;20.53;12.23;;;;;;;10.87;100.00;99647.56;4198377;28;23793;-70
2022/09/09 04:23:09;;;;;;;20.33;12.30;;;;;;;10.78;100.00;99648.56;4203019;28;20269;-69
2022/09/09 04:25:36;;;;;;;19.83;12.03;;;;;;;10.83;100.00;99656.88;4195183;28;21901;-69
2022/09/09 04:28:02;;;;;;;23.03;12.50;;;;;;;10.85;100.00;99654.06;4187671;28;21956;-68
2022/09/09 04:30:29;;;;;;;23.97;12.07;;;;;;;10.84;100.00;99652.38;4206694;28;21121;-69
2022/09/09 04:32:56;;;;;;;19.67;12.27;;;;;;;10.85;100.00;99654.91;4202446;28;20237;-69
2022/09/09 04:35:23;;;;;;;22.00;12.67;;;;;;;10.90;100.00;99657.88;4195418;28;20822;-71
2022/09/09 04:37:49;;;;;;;20.73;12.17;;;;;;;10.90;100.00;99652.56;4202010;28;20234;-69
2022/09/09 04:40:16;;;;;;;21.33;12.03;;;;;;;10.95;100.00;99650.22;4201994;28;20317;-68
2022/09/09 04:42:43;;;;;;;23.37;13.27;;;;;;;11.01;100.00;99658.56;4206633;28;20232;-71
2022/09/09 04:45:11;;;;;;;21.20;12.40;;;;;;;10.94;100.00;99664.53;4180049;28;21098;-71
2022/09/09 04:47:37;;;;;;;18.07;11.47;;;;;;;10.99;100.00;99662.22;4203663;28;23012;-70
2022/09/09 04:50:05;;;;;;;20.43;11.30;;;;;;;10.94;100.00;99661.88;4199458;28;20888;-71
2022/09/09 04:52:34;;;;;;;21.77;11.57;;;;;;;10.97;100.00;99664.19;4213598;28;20235;-70
2022/09/09 04:55:01;;;;;;;19.60;11.30;;;;;;;11.05;100.00;99675.84;4173944;28;21194;-68
2022/09/09 04:57:32;;;;;;;19.90;11.23;;;;;;;11.12;100.00;99676.84;4198910;28;20231;-68
2022/09/09 04:59:59;;;;;;;18.97;11.00;;;;;;;11.10;100.00;99676.19;4206246;28;21790;-71
2022/09/09 05:02:26;;;;;;;18.90;11.23;;;;;;;11.12;100.00;99674.19;4196117;28;20232;-72
2022/09/09 05:04:57;;;;;;;21.00;12.50;;;;;;;11.15;100.00;99676.53;4176226;28;20412;-71
2022/09/09 05:07:23;;;;;;;18.73;11.30;;;;;;;11.15;100.00;99680.00;4192365;28;20434;-70
2022/09/09 05:09:50;;;;;;;22.53;11.33;;;;;;;11.20;100.00;99679.50;4205530;28;20241;-72
2022/09/09 05:12:16;;;;;;;19.00;11.17;;;;;;;11.17;100.00;99675.34;4200287;28;20369;-73
2022/09/09 05:14:43;;;;;;;19.43;10.47;;;;;;;11.12;100.00;99683.03;4196681;28;20678;-72
2022/09/09 05:17:10;;;;;;;17.83;10.83;;;;;;;11.13;100.00;99681.19;4202414;28;20364;-73
2022/09/09 05:19:37;;;;;;;17.40;10.93;;;;;;;11.18;100.00;99681.50;4205503;28;20248;-72
2022/09/09 05:22:04;;;;;;;17.43;10.20;;;;;;;11.19;100.00;99677.84;4202020;28;20248;-69
2022/09/09 05:24:33;;;;;;;18.80;11.43;;;;;;;11.25;100.00;99687.00;4207514;28;22118;-70
2022/09/09 05:27:01;;;;;;;19.83;11.53;;;;;;;11.27;100.00;99683.16;4203422;28;20239;-73
2022/09/09 05:29:28;;;;;;;18.13;10.30;;;;;;;11.29;100.00;99672.34;4197492;28;22017;-73
2022/09/09 05:31:55;;;;;;;22.93;11.70;;;;;;;11.28;100.00;99676.81;4194279;28;20228;-71
2022/09/09 05:34:22;;;;;;;18.80;11.60;;;;;;;11.31;100.00;99687.16;4194867;28;20228;-71
2022/09/09 05:36:48;;;;;;;19.20;10.97;;;;;;;11.29;100.00;99675.84;4190799;28;20236;-73
2022/09/09 05:39:15;;;;;;;16.00;10.33;;;;;;;11.31;100.00;99675.69;4203411;28;21874;-73
2022/09/09 05:41:41;;;;;;;19.53;10.70;;;;;;;11.27;100.00;99680.50;4200276;28;20248;-75
2022/09/09 05:44:08;;;;;;;16.30;10.70;;;;;;;11.25;100.00;99682.50;4189999;28;21179;-72
2022/09/09 05:46:34;;;;;;;17.57;10.93;;;;;;;11.31;100.00;99681.84;4195337;28;20422;-70
2022/09/09 05:49:02;;;;;;;16.13;11.00;;;;;;;11.35;100.00;99683.16;4200051;28;23845;-76
2022/09/09 05:51:30;;;;;;;17.77;11.37;;;;;;;11.30;100.00;99682.00;4193780;28;20249;-76
2022/09/09 05:54:00;;;;;;;16.33;11.07;;;;;;;11.37;100.00;99685.66;4184898;28;20464;-73
2022/09/09 05:56:28;;;;;;;21.23;11.33;;;;;;;11.33;100.00;99682.50;4183987;28;20263;-71
2022/09/09 05:58:55;;;;;;;17.17;10.97;;;;;;;11.41;100.00;99687.81;4196547;28;20232;-72
2022/09/09 06:01:28;;;;;;;18.33;11.00;;;;;;;11.32;100.00;99688.81;4206700;28;20233;-70
2022/09/09 06:03:55;;;;;;;18.97;11.50;;;;;;;11.37;100.00;99686.47;4182695;28;20680;-73
2022/09/09 06:06:25;;;;;;;16.13;10.73;;;;;;;11.37;100.00;99691.81;4206194;28;20258;-73
2022/09/09 06:08:54;;;;;;;17.90;11.57;;;;;;;11.37;100.00;99688.31;4200912;28;20296;-73
2022/09/09 06:11:23;;;;;;;21.70;12.87;;;;;;;11.44;100.00;99705.28;4194820;28;21075;-71
2022/09/09 06:13:54;;;;;;;26.43;12.70;;;;;;;11.43;100.00;99695.66;4198774;28;20232;-72
2022/09/09 06:16:26;;;;;;;18.97;11.70;;;;;;;11.56;100.00;99700.44;4186273;28;20238;-74
2022/09/09 06:18:54;;;;;;;19.43;11.90;;;;;;;11.55;100.00;99706.78;4185940;28;20231;-70
2022/09/09 06:21:23;;;;;;;20.10;12.33;;;;;;;11.53;100.00;99708.78;4189268;28;20248;-70
2022/09/09 06:23:51;;;;;;;21.40;12.20;;;;;;;11.52;100.00;99710.63;4193405;28;20227;-71
2022/09/09 06:26:20;;;;;;;19.77;11.37;;;;;;;11.59;100.00;99708.94;4185189;28;20237;-71
2022/09/09 06:28:47;;;;;;;21.53;12.50;;;;;;;11.69;100.00;99714.06;4212376;28;20236;-73
2022/09/09 06:31:21;;;;;;;21.50;12.13;;;;;;;11.60;100.00;99710.59;4189099;28;23186;-69
2022/09/09 06:33:53;;;;;;;19.87;11.83;;;;;;;11.58;100.00;99709.91;4198417;28;20229;-71
2022/09/09 06:36:24;;;;;;;17.47;11.30;;;;;;;11.57;100.00;99715.44;4186617;28;22197;-73
2022/09/09 06:38:51;;;;;;;19.87;11.43;;;;;;;11.56;100.00;99717.25;4186112;28;21776;-69
2022/09/09 06:41:20;;;;;;;20.07;11.83;;;;;;;11.56;100.00;99716.41;4197878;28;20885;-70
2022/09/09 06:43:46;;;;;;;19.47;11.83;;;;;;;11.62;100.00;99710.44;4193459;28;22256;-69
2022/09/09 06:46:21;;;;;;;16.90;12.23;;;;;;;11.75;100.00;99716.06;4207026;28;21508;-71
2022/09/09 06:48:48;;;;;;;24.07;12.40;;;;;;;11.72;100.00;99721.72;4204619;28;20228;-69
2022/09/09 06:51:17;;;;;;;19.70;11.57;;;;;;;11.82;100.00;99724.19;4196516;28;20244;-69
2022/09/09 06:53:45;;;;;;;19.40;11.90;;;;;;;11.92;100.00;99724.88;4193958;28;21571;-69
2022/09/09 06:56:31;;;;;;;22.40;13.17;;;;;;;11.97;100.00;99727.88;4199250;28;20241;-72
2022/09/09 06:59:03;;;;;;;17.50;12.10;;;;;;;11.97;100.00;99721.72;4210484;28;20350;-69
2022/09/09 07:01:33;;;;;;;17.63;10.67;;;;;;;11.90;100.00;99728.72;4195891;28;20236;-69
2022/09/09 07:04:00;;;;;;;24.23;11.70;;;;;;;11.88;100.00;99720.06;4200110;28;21155;-71
2022/09/09 07:06:30;;;;;;;18.40;11.43;;;;;;;11.89;100.00;99733.19;4198249;28;24862;-71
2022/09/09 07:08:59;;;;;;;17.00;12.07;;;;;;;11.97;100.00;99725.19;4188355;28;22827;-70
2022/09/09 07:11:30;;;;;;;20.57;12.10;;;;;;;11.92;100.00;99737.38;4195574;28;20576;-73
2022/09/09 07:13:58;;;;;;;20.30;12.50;;;;;;;11.94;100.00;99735.34;4196845;28;20242;-69
2022/09/09 07:16:27;;;;;;;21.27;12.53;;;;;;;11.96;100.00;99728.88;4203796;28;22201;-71
2022/09/09 07:19:00;;;;;;;21.60;12.60;;;;;;;11.98;100.00;99734.03;4202337;28;21352;-69
2022/09/09 07:21:28;;;;;;;23.33;12.73;;;;;;;12.01;100.00;99737.19;4183948;28;20707;-69
2022/09/09 07:23:55;;;;;;;20.20;12.53;;;;;;;12.14;100.00;99738.47;4198252;28;20267;-71
2022/09/09 07:26:23;;;;;;;25.30;13.60;;;;;;;12.17;100.00;99740.78;4204876;28;22015;-69
2022/09/09 07:28:50;;;;;;;23.77;13.37;;;;;;;12.21;100.00;99748.28;4208678;28;20691;-72
2022/09/09 07:31:20;;;;;;;22.93;13.27;;;;;;;12.20;100.00;99741.28;4193649;28;20708;-72
2022/09/09 07:33:48;;;;;;;19.07;13.13;;;;;;;12.30;100.00;99742.91;4185554;28;20233;-70
2022/09/09 07:36:15;;;;;;;25.37;13.80;;;;;;;12.32;100.00;99748.91;4198338;28;20335;-72
2022/09/09 07:38:45;;;;;;;22.80;13.23;;;;;;;12.31;100.00;99748.06;4200427;28;20252;-73
2022/09/09 07:41:17;;;;;;;23.03;13.60;;;;;;;12.32;100.00;99744.41;4212770;28;20245;-70
2022/09/09 07:43:45;;;;;;;24.83;13.97;;;;;;;12.36;100.00;99747.53;4192439;28;20746;-70
2022/09/09 07:46:13;;;;;;;20.10;13.17;;;;;;;12.44;100.00;99745.69;4240143;28;24252;-69
2022/09/09 07:48:46;;;;;;;21.43;13.57;;;;;;;12.54;100.00;99756.13;4201812;28;20300;-69
2022/09/09 07:51:19;;;;;;;24.80;14.07;;;;;;;12.61;100.00;99754.44;4175620;28;20241;-70
2022/09/09 07:53:46;;;;;;;26.87;14.93;;;;;;;12.53;100.00;99757.16;4206571;28;20398;-70
2022/09/09 07:56:14;;;;;;;25.17;13.67;;;;;;;12.53;100.00;99762.50;4206829;28;20234;-71
2022/09/09 07:58:41;;;;;;;24.73;13.03;;;;;;;12.51;100.00;99764.50;4198607;28;21092;-69
2022/09/09 08:01:18;;;;;;;21.33;14.23;;;;;;;12.39;100.00;99777.41;4183958;28;20252;-72
2022/09/09 08:03:45;;;;;;;25.83;15.37;;;;;;;12.52;100.00;99776.00;4198051;28;20233;-73
2022/09/09 08:06:13;;;;;;;23.97;14.60;;;;;;;12.67;100.00;99774.28;4200679;28;20241;-72
2022/09/09 08:08:41;;;;;;;25.23;15.47;;;;;;;12.79;100.00;99782.72;4186093;28;21725;-70
2022/09/09 08:11:11;;;;;;;28.60;14.27;;;;;;;12.81;100.00;99791.38;4186860;28;20769;-70
2022/09/09 08:13:39;;;;;;;24.30;13.80;;;;;;;12.83;100.00;99790.22;4200263;28;21674;-69
2022/09/09 08:16:21;;;;;;;29.07;13.53;;;;;;;12.86;100.00;99789.84;4210378;28;20970;-71
2022/09/09 08:18:49;;;;;;;24.90;14.40;;;;;;;12.77;100.00;99798.91;4217892;28;20392;-69
2022/09/09 08:21:18;;;;;;;26.83;13.70;;;;;;;12.76;100.00;99793.72;4196408;28;24748;-71
2022/09/09 08:23:45;;;;;;;24.70;14.47;;;;;;;12.72;100.00;99787.09;4198218;28;20240;-68
2022/09/09 08:26:17;;;;;;;25.40;14.13;;;;;;;12.74;100.00;99793.94;4209110;28;20448;-69
2022/09/09 08:28:43;;;;;;;28.73;14.83;;;;;;;12.69;100.00;99793.63;4197857;28;20504;-67
2022/09/09 08:31:11;;;;;;;26.33;15.03;;;;;;;12.62;100.00;99790.81;4184742;28;20248;-71
2022/09/09 08:33:39;;;;;;;33.50;16.93;;;;;;;12.64;100.00;99790.63;4209977;28;24527;-75
2022/09/09 08:36:06;;;;;;;32.13;16.13;;;;;;;12.76;100.00;99793.72;4204767;28;20420;-72
2022/09/09 08:38:33;;;;;;;32.40;15.50;;;;;;;12.83;100.00;99795.53;4194613;28;20240;-71
2022/09/09 08:41:28;;;;;;;29.30;16.30;;;;;;;12.85;100.00;99803.34;4204115;28;21851;-71
2022/09/09 08:44:30;;;;;;;33.53;17.27;;;;;;;12.76;100.00;99801.75;4154540;28;20988;-71
2022/09/09 08:47:46;;;;;;;29.60;16.13;;;;;;;12.88;100.00;99803.03;4204029;28;21669;-73
2022/09/09 08:50:24;;;;;;;36.67;17.40;;;;;;;12.97;100.00;99796.63;4141155;29;20512;-74
2022/09/09 08:53:16;;;;;;;29.40;16.80;;;;;;;12.96;100.00;99807.47;4133170;29;20231;-74
2022/09/09 08:55:48;;;;;;;35.23;17.03;;;;;;;13.07;100.00;99809.75;4181833;28;21510;-74
2022/09/09 08:58:17;;;;;;;31.27;17.20;;;;;;;13.05;100.00;99812.59;4185504;28;20227;-41
2022/09/09 09:01:00;;;;;;;40.33;17.70;;;;;;;13.23;100.00;99795.47;4216416;28;20232;-73
2022/09/09 09:04:08;;;;;;;38.33;18.60;;;;;;;13.35;100.00;99802.09;4214762;28;20239;-73
2022/09/09 09:06:44;;;;;;;29.70;16.80;;;;;;;13.31;100.00;99803.44;4205643;28;20434;-78
2022/09/09 09:09:13;;;;;;;31.77;17.20;;;;;;;13.34;100.00;99803.06;4206133;28;22077;-73
2022/09/09 09:12:01;;;;;;;34.47;17.10;;;;;;;13.41;100.00;99806.69;4206099;28;20253;-77
2022/09/09 09:14:33;;;;;;;34.07;17.87;;;;;;;13.42;100.00;99811.03;4215358;28;26311;-73
2022/09/09 09:17:12;;;;;;;29.50;16.93;;;;;;;13.40;100.00;99813.06;4208029;28;20720;-75
2022/09/09 09:19:40;;;;;;;31.83;17.10;;;;;;;13.50;100.00;99819.00;4198118;28;20249;-76
2022/09/09 09:22:31;;;;;;;33.37;17.93;;;;;;;13.50;100.00;99828.84;4189871;28;21201;-74
2022/09/09 09:25:10;;;;;;;32.97;17.73;;;;;;;13.48;100.00;99829.03;4191465;28;20277;-75
2022/09/09 09:27:43;;;;;;;32.60;18.27;;;;;;;13.45;100.00;99836.59;4184367;28;20362;-72
2022/09/09 09:30:25;;;;;;;35.97;17.80;;;;;;;13.38;100.00;99825.78;4191208;28;20230;-76
2022/09/09 09:33:15;;;;;;;34.33;18.47;;;;;;;13.40;100.00;99826.44;4201440;28;20245;-74
2022/09/09 09:35:42;;;;;;;33.70;19.00;;;;;;;13.28;100.00;99831.34;4222914;28;20240;-73
2022/09/09 09:38:21;;;;;;;28.63;18.17;;;;;;;13.32;100.00;99831.81;4198983;28;20610;-73
2022/09/09 09:41:08;;;;;;;35.07;18.37;;;;;;;13.46;100.00;99823.06;4199555;28;21704;-72
2022/09/09 09:43:36;;;;;;;36.20;18.97;;;;;;;13.55;100.00;99833.66;4212001;28;26357;-74
2022/09/09 09:46:04;;;;;;;34.10;19.20;;;;;;;13.60;100.00;99834.81;4200877;28;20233;-75
2022/09/09 09:48:45;;;;;;;36.37;18.03;;;;;;;13.68;100.00;99839.25;4232572;28;21997;-72
2022/09/09 09:51:15;;;;;;;35.50;19.93;;;;;;;13.83;100.00;99829.41;4201624;28;20635;-71
2022/09/09 09:53:42;;;;;;;35.00;19.03;;;;;;;13.74;100.00;99835.84;4196546;28;21191;-73
2022/09/09 09:56:12;;;;;;;35.13;18.77;;;;;;;13.68;100.00;99837.41;4197020;28;20241;-73
2022/09/09 09:58:45;;;;;;;33.70;19.70;;;;;;;13.57;100.00;99837.81;4192225;28;20245;-75
2022/09/09 10:01:21;;;;;;;41.27;20.27;;;;;;;13.46;100.00;99832.88;4208020;28;20304;-75
2022/09/09 10:03:52;;;;;;;34.17;18.53;;;;;;;13.56;100.00;99828.16;4201266;28;21437;-73
2022/09/09 10:06:36;;;;;;;38.73;19.70;;;;;;;13.63;100.00;99829.09;4190137;28;20589;-72
2022/09/09 10:09:17;;;;;;;36.37;19.20;;;;;;;13.68;100.00;99841.94;4186748;28;20363;-72
2022/09/09 10:11:55;;;;;;;39.17;20.77;;;;;;;13.79;100.00;99846.00;4222654;28;21092;-73
2022/09/09 10:14:52;;;;;;;42.37;21.07;;;;;;;13.86;100.00;99849.59;4189833;28;20312;-73
2022/09/09 10:17:29;;;;;;;33.53;20.00;;;;;;;13.99;100.00;99843.66;4203637;28;20276;-74
2022/09/09 10:20:13;;;;;;;38.23;21.43;;;;;;;14.00;100.00;99845.31;4193540;28;20467;-73
2022/09/09 10:22:44;;;;;;;42.93;20.33;;;;;;;13.99;100.00;99844.47;4226364;28;20237;-72
2022/09/09 10:25:35;;;;;;;39.47;20.53;;;;;;;13.98;100.00;99852.69;4204542;28;21419;-74
2022/09/09 10:28:33;;;;;;;39.13;21.37;;;;;;;13.93;100.00;99856.75;4191643;28;20244;-73
2022/09/09 10:31:25;;;;;;;39.67;20.70;;;;;;;14.00;100.00;99861.34;4196499;28;20244;-73
2022/09/09 10:34:06;;;;;;;43.93;21.73;;;;;;;14.06;100.00;99871.34;4213426;28;21137;-72
2022/09/09 10:36:34;;;;;;;42.83;21.67;;;;;;;14.05;100.00;99875.03;4205995;28;21101;-74
2022/09/09 10:39:05;;;;;;;39.50;20.93;;;;;;;14.08;100.00;99886.19;4205001;28;20915;-69
2022/09/09 10:41:40;;;;;;;37.43;21.17;;;;;;;14.01;100.00;99889.78;4207340;28;21116;-70
2022/09/09 10:44:18;;;;;;;43.27;21.93;;;;;;;14.07;100.00;99894.41;4188722;28;20233;-73
2022/09/09 10:46:52;;;;;;;39.43;20.90;;;;;;;14.04;100.00;99894.78;4192353;28;21478;-68
2022/09/09 10:49:57;;;;;;;43.53;22.20;;;;;;;14.12;100.00;99897.38;4181152;28;20244;-65
2022/09/09 10:52:52;;;;;;;39.93;21.33;;;;;;;14.14;100.00;99895.34;4166186;28;20340;-69
2022/09/09 10:55:21;;;;;;;44.93;22.80;;;;;;;14.19;100.00;99897.47;4176216;28;20246;-71
2022/09/09 10:57:58;;;;;;;44.70;21.93;;;;;;;14.16;100.00;99901.34;4182179;28;20297;-70
2022/09/09 11:00:31;;;;;;;39.77;21.57;;;;;;;14.21;100.00;99907.00;4201579;28;20520;-71
2022/09/09 11:03:04;;;;;;;45.93;21.80;;;;;;;14.09;100.00;99906.63;4195169;28;20601;-72
2022/09/09 11:05:49;;;;;;;45.20;22.00;;;;;;;14.02;100.00;99902.13;4179132;28;20661;-71
2022/09/09 11:08:20;;;;;;;45.27;22.90;;;;;;;13.94;100.00;99913.75;4183388;28;20410;-72
2022/09/09 11:11:16;;;;;;;49.07;23.23;;;;;;;13.87;100.00;99904.78;4190479;28;20231;-70
2022/09/09 11:13:52;;;;;;;50.37;23.83;;;;;;;13.87;100.00;99910.13;4210794;28;20267;-71
2022/09/09 11:16:31;;;;;;;48.80;24.50;;;;;;;13.91;100.00;99922.13;4205529;28;20229;-72
2022/09/09 11:19:04;;;;;;;58.00;24.70;;;;;;;13.94;100.00;99916.44;4195572;28;20258;-72
2022/09/09 11:21:36;;;;;;;48.67;24.13;;;;;;;14.11;100.00;99917.94;4207529;28;21170;-71
2022/09/09 11:24:08;;;;;;;51.70;25.90;;;;;;;14.19;100.00;99919.72;4205025;28;20232;-71
2022/09/09 11:26:57;;;;;;;50.83;24.27;;;;;;;14.27;100.00;99914.28;4213515;28;23120;-69
2022/09/09 11:29:47;;;;;;;52.10;23.90;;;;;;;14.33;100.00;99921.59;4226215;28;20237;-71
2022/09/09 11:32:51;;;;;;;52.43;24.07;;;;;;;14.30;100.00;99921.94;4199702;28;20294;-78
2022/09/09 11:35:34;;;;;;;52.20;25.10;;;;;;;14.29;100.00;99920.28;4210146;28;20516;-75